createdAt,value
2018-12-25T00:00:42.495Z,48.20
2018-12-25T00:03:22.881Z,48.20
2018-12-25T00:06:03.325Z,48.20
2018-12-25T00:08:43.645Z,48.30
2018-12-25T00:11:23.968Z,48.20
2018-12-25T00:14:06.086Z,48.20
2018-12-25T00:16:46.372Z,48.20
2018-12-25T00:19:26.580Z,48.10
2018-12-25T00:22:06.853Z,48.20
2018-12-25T00:24:46.977Z,48.10
2018-12-25T00:27:26.960Z,48.20
2018-12-25T00:30:07.132Z,48.20
2018-12-25T00:32:47.488Z,48.20
2018-12-25T00:35:27.667Z,48.20
2018-12-25T00:38:07.985Z,48.10
2018-12-25T00:40:48.054Z,48.20
2018-12-25T00:43:28.284Z,48.10
2018-12-25T00:46:08.362Z,48.10
2018-12-25T00:48:48.469Z,48.10
2018-12-25T00:51:28.717Z,48.20
2018-12-25T00:54:08.863Z,48.10
2018-12-25T00:56:48.989Z,48.10
2018-12-25T00:59:29.096Z,48.70
2018-12-25T01:02:09.584Z,48.10
2018-12-25T01:04:49.645Z,48.20
2018-12-25T01:07:29.921Z,48.10
2018-12-25T01:10:10.219Z,48.10
2018-12-25T01:12:50.648Z,48.20
2018-12-25T01:15:30.813Z,48.10
2018-12-25T01:18:11.201Z,48.10
2018-12-25T01:20:51.432Z,48.10
2018-12-25T01:23:31.941Z,48.20
2018-12-25T01:26:11.939Z,48.20
2018-12-25T01:28:52.242Z,48.10
2018-12-25T01:31:32.077Z,48.20
2018-12-25T01:34:12.443Z,48.10
2018-12-25T01:36:52.836Z,48.10
2018-12-25T01:39:32.988Z,48.20
2018-12-25T01:42:13.230Z,48.20
2018-12-25T01:44:53.492Z,48.10
2018-12-25T01:47:33.654Z,48.10
2018-12-25T01:50:13.784Z,48.10
2018-12-25T01:52:53.924Z,48.10
2018-12-25T01:55:34.020Z,48.10
2018-12-25T01:58:14.302Z,48.20
2018-12-25T02:00:54.472Z,48.30
2018-12-25T02:03:34.668Z,48.30
2018-12-25T02:06:14.643Z,48.30
2018-12-25T02:08:54.719Z,48.40
2018-12-25T02:11:34.894Z,48.40
2018-12-25T02:14:15.081Z,48.40
2018-12-25T02:16:55.344Z,48.50
2018-12-25T02:19:40.193Z,48.40
2018-12-25T02:22:17.769Z,48.50
2018-12-25T02:24:57.922Z,48.50
2018-12-25T02:27:38.635Z,48.50
2018-12-25T02:30:18.688Z,48.60
2018-12-25T02:32:58.700Z,48.60
2018-12-25T02:35:39.066Z,48.50
2018-12-25T02:38:19.200Z,48.50
2018-12-25T02:40:59.194Z,48.50
2018-12-25T02:43:39.424Z,48.60
2018-12-25T02:46:19.653Z,48.60
2018-12-25T02:48:59.951Z,48.60
2018-12-25T02:51:40.359Z,48.60
2018-12-25T02:54:20.651Z,48.60
2018-12-25T02:57:01.178Z,48.60
2018-12-25T02:59:41.435Z,48.60
2018-12-25T03:02:21.737Z,48.60
2018-12-25T03:05:01.725Z,48.70
2018-12-25T03:07:41.772Z,48.70
2018-12-25T03:10:22.234Z,48.60
2018-12-25T03:13:02.559Z,48.70
2018-12-25T03:15:42.720Z,48.60
2018-12-25T03:18:23.172Z,48.80
2018-12-25T03:21:03.671Z,48.70
2018-12-25T03:23:43.557Z,48.70
2018-12-25T03:26:23.518Z,48.70
2018-12-25T03:29:03.961Z,48.70
2018-12-25T03:31:44.148Z,48.80
2018-12-25T03:34:24.410Z,48.80
2018-12-25T03:37:05.028Z,48.80
2018-12-25T03:39:45.028Z,48.70
2018-12-25T03:42:25.495Z,48.80
2018-12-25T03:45:05.658Z,48.70
2018-12-25T03:47:46.181Z,48.80
2018-12-25T03:50:26.199Z,48.80
2018-12-25T03:53:06.471Z,48.80
2018-12-25T03:55:46.609Z,48.80
2018-12-25T03:58:26.842Z,48.80
2018-12-25T04:01:06.791Z,48.80
2018-12-25T04:03:47.072Z,48.80
2018-12-25T04:06:27.302Z,48.80
2018-12-25T04:09:07.546Z,48.80
2018-12-25T04:11:48.046Z,48.80
2018-12-25T04:14:28.006Z,48.80
2018-12-25T04:17:09.305Z,48.70
2018-12-25T04:19:49.452Z,48.70
2018-12-25T04:22:29.773Z,48.80
2018-12-25T04:25:09.870Z,48.80
2018-12-25T04:27:49.981Z,48.80
2018-12-25T04:30:30.369Z,48.70
2018-12-25T04:33:10.945Z,48.80
2018-12-25T04:35:51.295Z,48.80
2018-12-25T04:38:31.604Z,48.80
2018-12-25T04:41:12.066Z,48.80
2018-12-25T04:43:52.279Z,48.80
2018-12-25T04:46:32.685Z,48.80
2018-12-25T04:49:13.057Z,48.80
2018-12-25T04:51:53.164Z,48.90
2018-12-25T04:54:36.913Z,48.80
2018-12-25T04:57:16.737Z,48.80
2018-12-25T04:59:57.208Z,48.80
2018-12-25T05:02:37.795Z,48.80
2018-12-25T05:05:18.070Z,48.80
2018-12-25T05:07:58.317Z,48.70
2018-12-25T05:10:38.553Z,48.90
2018-12-25T05:13:18.628Z,48.80
2018-12-25T05:15:58.965Z,48.80
2018-12-25T05:18:39.369Z,48.70
2018-12-25T05:21:19.186Z,48.80
2018-12-25T05:23:59.394Z,48.70
2018-12-25T05:26:39.588Z,48.80
2018-12-25T05:29:19.756Z,48.80
2018-12-25T05:32:00.180Z,48.80
2018-12-25T05:34:40.131Z,48.80
2018-12-25T05:37:19.933Z,48.80
2018-12-25T05:40:00.311Z,48.80
2018-12-25T05:42:40.404Z,48.80
2018-12-25T05:45:20.641Z,48.80
2018-12-25T05:48:01.126Z,48.70
2018-12-25T05:50:46.642Z,48.80
2018-12-25T05:53:23.381Z,48.80
2018-12-25T05:56:03.660Z,48.80
2018-12-25T05:58:43.918Z,48.70
2018-12-25T06:01:24.862Z,48.70
2018-12-25T06:04:05.114Z,48.80
2018-12-25T06:06:45.455Z,48.80
2018-12-25T06:09:25.653Z,48.80
2018-12-25T06:12:05.710Z,48.80
2018-12-25T06:14:45.880Z,48.80
2018-12-25T06:17:26.234Z,48.80
2018-12-25T06:22:01.964Z,48.80
2018-12-25T06:24:42.186Z,48.80
2018-12-25T06:27:22.345Z,48.70
2018-12-25T06:30:02.914Z,48.80
2018-12-25T06:32:44.812Z,48.80
2018-12-25T06:35:25.380Z,48.80
2018-12-25T06:38:05.792Z,48.80
2018-12-25T06:40:45.924Z,48.80
2018-12-25T06:43:26.036Z,48.80
2018-12-25T06:46:06.420Z,48.80
2018-12-25T06:48:46.344Z,48.80
2018-12-25T06:51:26.595Z,48.70
2018-12-25T06:54:06.732Z,48.80
2018-12-25T06:56:46.865Z,48.80
2018-12-25T06:59:27.209Z,48.80
2018-12-25T07:02:07.462Z,48.70
2018-12-25T07:04:47.669Z,48.80
2018-12-25T07:07:27.684Z,48.80
2018-12-25T07:10:07.748Z,48.70
2018-12-25T07:12:48.342Z,48.70
2018-12-25T07:15:32.975Z,48.80
2018-12-25T07:21:38.265Z,48.70
2018-12-25T07:24:18.639Z,48.80
2018-12-25T07:26:58.725Z,48.80
2018-12-25T07:29:38.761Z,48.80
2018-12-25T07:32:19.227Z,48.80
2018-12-25T07:34:59.576Z,48.80
2018-12-25T07:37:39.724Z,48.80
2018-12-25T07:40:19.809Z,48.80
2018-12-25T07:43:00.092Z,48.80
2018-12-25T07:45:40.386Z,48.80
2018-12-25T07:48:20.386Z,48.80
2018-12-25T07:51:00.492Z,48.80
2018-12-25T08:06:20.079Z,48.80
2018-12-25T08:09:06.936Z,48.80
2018-12-25T08:11:47.018Z,48.80
2018-12-25T08:14:27.102Z,48.80
2018-12-25T08:17:07.581Z,48.80
2018-12-25T08:19:54.402Z,48.80
2018-12-25T08:22:35.041Z,48.80
2018-12-25T08:25:15.515Z,48.90
2018-12-25T08:27:55.762Z,48.80
2018-12-25T08:30:35.969Z,48.80
2018-12-25T08:33:15.893Z,48.80
2018-12-25T08:35:56.233Z,48.80
2018-12-25T08:38:36.376Z,48.80
2018-12-25T08:41:16.644Z,48.80
2018-12-25T08:43:56.961Z,48.80
2018-12-25T08:46:37.245Z,48.80
2018-12-25T08:49:17.505Z,48.80
2018-12-25T08:51:57.693Z,48.80
2018-12-25T08:54:39.844Z,48.80
2018-12-25T08:57:19.897Z,48.80
2018-12-25T09:00:00.268Z,48.80
2018-12-25T09:02:41.291Z,48.80
2018-12-25T09:05:21.432Z,48.80
2018-12-25T09:08:01.873Z,48.80
2018-12-25T09:10:41.968Z,48.70
2018-12-25T09:13:22.054Z,48.80
2018-12-25T09:16:02.479Z,48.80
2018-12-25T09:21:46.208Z,48.80
2018-12-25T09:24:21.100Z,48.70
2018-12-25T09:27:01.305Z,48.80
2018-12-25T09:29:41.583Z,48.80
2018-12-25T09:32:21.868Z,48.80
2018-12-25T09:35:02.017Z,48.80
2018-12-25T09:37:42.242Z,48.80
2018-12-25T09:40:22.742Z,48.80
2018-12-25T09:43:02.849Z,48.80
2018-12-25T09:45:43.265Z,48.80
2018-12-25T09:48:23.721Z,48.80
2018-12-25T09:51:03.834Z,48.80
2018-12-25T09:56:52.483Z,48.70
2018-12-25T09:59:32.644Z,48.80
2018-12-25T10:02:12.864Z,48.70
2018-12-25T10:04:53.013Z,48.70
2018-12-25T10:07:33.440Z,48.70
2018-12-25T10:10:13.391Z,48.70
2018-12-25T10:12:53.407Z,48.70
2018-12-25T10:15:33.533Z,48.70
2018-12-25T10:18:13.667Z,48.70
2018-12-25T10:20:53.805Z,48.70
2018-12-25T10:23:34.265Z,48.70
2018-12-25T10:26:14.224Z,48.70
2018-12-25T10:28:54.622Z,48.70
2018-12-25T10:31:34.733Z,48.70
2018-12-25T10:34:14.858Z,48.70
2018-12-25T10:36:54.902Z,48.70
2018-12-25T10:39:35.106Z,48.70
2018-12-25T10:42:15.079Z,48.70
2018-12-25T10:44:55.229Z,48.70
2018-12-25T10:47:35.256Z,48.70
2018-12-25T10:50:15.578Z,48.70
2018-12-25T10:52:55.532Z,48.70
2018-12-25T10:55:35.642Z,48.70
2018-12-25T10:58:16.108Z,48.70
2018-12-25T11:00:56.219Z,48.70
2018-12-25T11:03:37.086Z,48.70
2018-12-25T11:06:17.617Z,48.70
2018-12-25T11:08:57.781Z,49.30
2018-12-25T11:11:38.284Z,48.70
2018-12-25T11:14:18.380Z,48.70
2018-12-25T11:16:58.750Z,48.70
2018-12-25T11:19:40.221Z,48.70
2018-12-25T11:22:20.250Z,48.70
2018-12-25T11:25:00.775Z,48.70
2018-12-25T11:27:40.869Z,48.80
2018-12-25T11:30:21.072Z,49.30
2018-12-25T11:33:01.393Z,48.70
2018-12-25T11:35:41.734Z,48.70
2018-12-25T11:38:21.560Z,48.70
2018-12-25T11:41:02.778Z,48.70
2018-12-25T11:43:42.941Z,48.70
2018-12-25T11:46:23.219Z,48.70
2018-12-25T11:49:03.540Z,48.70
2018-12-25T11:51:43.574Z,48.70
2018-12-25T11:54:23.569Z,48.80
2018-12-25T11:57:04.001Z,48.70
2018-12-25T11:59:44.377Z,48.70
2018-12-25T12:02:24.919Z,48.70
2018-12-25T12:05:05.437Z,48.70
2018-12-25T12:07:45.946Z,48.70
2018-12-25T12:10:26.473Z,48.70
2018-12-25T12:13:06.506Z,48.70
2018-12-25T12:15:46.997Z,48.70
2018-12-25T12:18:27.115Z,48.70
2018-12-25T12:21:07.534Z,48.70
2018-12-25T12:23:47.899Z,48.70
2018-12-25T12:26:28.498Z,48.70
2018-12-25T12:29:08.904Z,48.70
2018-12-25T12:31:48.912Z,48.70
2018-12-25T12:34:30.036Z,48.70
2018-12-25T12:37:10.657Z,48.70
2018-12-25T12:39:50.785Z,48.70
2018-12-25T12:42:31.199Z,48.70
2018-12-25T12:45:11.386Z,48.70
2018-12-25T12:47:51.427Z,48.70
2018-12-25T12:50:31.741Z,48.70
2018-12-25T12:53:11.961Z,48.70
2018-12-25T12:55:51.984Z,48.70
2018-12-25T12:58:32.309Z,48.70
2018-12-25T13:04:21.925Z,48.60
2018-12-25T13:07:02.006Z,48.60
2018-12-25T13:09:42.316Z,48.70
2018-12-25T13:12:22.625Z,48.60
2018-12-25T13:15:02.756Z,48.60
2018-12-25T13:17:43.113Z,48.60
2018-12-25T13:20:23.163Z,48.60
2018-12-25T13:23:03.385Z,48.60
2018-12-25T13:25:43.714Z,48.70
2018-12-25T13:28:24.298Z,48.60
2018-12-25T13:34:30.027Z,48.60
2018-12-25T13:37:10.583Z,48.60
2018-12-25T13:39:51.305Z,48.70
2018-12-25T13:42:31.079Z,48.60
2018-12-25T13:45:12.105Z,48.80
2018-12-25T13:47:53.344Z,48.80
2018-12-25T13:50:34.148Z,48.90
2018-12-25T13:53:15.438Z,48.90
2018-12-25T13:55:56.854Z,48.90
2018-12-25T13:58:57.170Z,48.90
2018-12-25T14:02:05.439Z,48.90
2018-12-25T14:05:02.790Z,48.90
2018-12-25T14:07:40.342Z,48.90
2018-12-25T14:10:22.595Z,48.20
2018-12-25T14:13:07.993Z,48.50
2018-12-25T14:15:51.379Z,48.70
2018-12-25T14:18:32.440Z,48.00
2018-12-25T14:21:13.583Z,48.40
2018-12-25T14:23:55.079Z,48.80
2018-12-25T14:26:39.513Z,48.90
2018-12-25T14:29:20.781Z,49.60
2018-12-25T14:32:05.821Z,49.00
2018-12-25T14:37:54.843Z,49.30
2018-12-25T14:40:38.984Z,49.40
2018-12-25T14:43:26.861Z,49.30
2018-12-25T14:46:11.783Z,49.20
2018-12-25T14:48:53.452Z,49.30
2018-12-25T14:51:54.857Z,49.40
2018-12-25T14:54:37.527Z,49.30
2018-12-25T15:00:08.706Z,49.30
2018-12-25T15:02:50.111Z,49.40
2018-12-25T15:05:32.090Z,49.40
2018-12-25T15:08:14.116Z,49.40
2018-12-25T15:10:57.887Z,49.40
2018-12-25T15:13:38.835Z,49.20
2018-12-25T15:19:27.970Z,49.10
2018-12-25T15:22:09.332Z,49.10
2018-12-25T15:24:50.671Z,49.00
2018-12-25T15:27:32.263Z,49.10
2018-12-25T15:30:12.657Z,49.00
2018-12-25T15:32:52.892Z,49.10
2018-12-25T15:35:33.104Z,49.20
2018-12-25T15:38:13.424Z,49.30
2018-12-25T15:40:54.052Z,49.30
2018-12-25T15:43:34.537Z,49.30
2018-12-25T15:46:15.628Z,49.60
2018-12-25T15:48:58.332Z,49.70
2018-12-25T15:51:39.157Z,49.90
2018-12-25T15:54:19.142Z,50.00
2018-12-25T15:56:59.512Z,50.10
2018-12-25T15:59:39.717Z,50.20
2018-12-25T16:02:19.948Z,50.10
2018-12-25T16:05:00.084Z,50.30
2018-12-25T16:07:40.049Z,50.40
2018-12-25T16:10:20.305Z,50.60
2018-12-25T16:13:00.417Z,50.70
2018-12-25T16:15:41.809Z,50.80
2018-12-25T16:18:22.161Z,50.90
2018-12-25T16:21:02.481Z,50.90
2018-12-25T16:23:45.524Z,51.00
2018-12-25T16:26:23.534Z,51.30
2018-12-25T16:32:34.553Z,51.30
2018-12-25T16:35:15.437Z,51.30
2018-12-25T16:37:57.892Z,51.10
2018-12-25T16:40:38.846Z,51.10
2018-12-25T16:43:18.766Z,51.10
2018-12-25T16:45:59.326Z,51.00
2018-12-25T16:48:45.646Z,51.00
2018-12-25T16:51:32.837Z,51.00
2018-12-25T16:57:02.789Z,51.00
2018-12-25T16:59:42.980Z,50.90
2018-12-25T17:02:23.401Z,50.90
2018-12-25T17:05:03.992Z,50.80
2018-12-25T17:07:44.404Z,50.70
2018-12-25T17:10:24.594Z,50.70
2018-12-25T17:13:04.865Z,50.60
2018-12-25T17:15:45.217Z,50.60
2018-12-25T17:18:25.543Z,50.60
2018-12-25T17:21:05.530Z,50.60
2018-12-25T17:23:45.600Z,50.60
2018-12-25T17:26:25.751Z,50.60
2018-12-25T17:29:05.992Z,50.60
2018-12-25T17:31:47.470Z,50.50
2018-12-25T17:34:27.726Z,50.50
2018-12-25T17:37:07.881Z,50.50
2018-12-25T17:39:48.297Z,50.50
2018-12-25T17:42:30.281Z,50.40
2018-12-25T17:45:10.757Z,50.40
2018-12-25T17:47:51.018Z,50.50
2018-12-25T17:50:31.502Z,50.40
2018-12-25T17:53:11.501Z,50.40
2018-12-25T17:55:52.025Z,50.50
2018-12-25T17:58:32.685Z,50.40
2018-12-25T18:01:12.628Z,50.40
2018-12-25T18:03:52.675Z,50.40
2018-12-25T18:06:32.781Z,50.30
2018-12-25T18:09:13.173Z,50.30
2018-12-25T18:11:53.515Z,50.30
2018-12-25T18:14:33.638Z,50.30
2018-12-25T18:17:18.792Z,50.30
2018-12-25T18:19:56.311Z,50.30
2018-12-25T18:22:36.354Z,50.30
2018-12-25T18:25:16.500Z,50.20
2018-12-25T18:27:56.624Z,50.20
2018-12-25T18:30:36.773Z,50.20
2018-12-25T18:33:16.973Z,50.20
2018-12-25T18:35:57.349Z,50.20
2018-12-25T18:38:37.652Z,50.20
2018-12-25T18:41:17.651Z,50.20
2018-12-25T18:43:58.011Z,50.20
2018-12-25T18:46:38.321Z,50.20
2018-12-25T18:49:18.379Z,50.20
2018-12-25T18:51:58.485Z,50.20
2018-12-25T18:54:38.651Z,50.20
2018-12-25T18:57:18.766Z,50.20
2018-12-25T18:59:58.936Z,50.20
2018-12-25T19:02:38.919Z,50.20
2018-12-25T19:05:19.043Z,50.20
2018-12-25T19:07:59.363Z,50.10
2018-12-25T19:10:39.438Z,50.20
2018-12-25T19:13:19.672Z,50.20
2018-12-25T19:16:00.026Z,50.00
2018-12-25T19:21:29.576Z,50.10
2018-12-25T19:24:09.683Z,50.10
2018-12-25T19:26:50.059Z,50.10
2018-12-25T19:29:30.134Z,50.10
2018-12-25T19:32:10.145Z,50.00
2018-12-25T19:34:50.615Z,50.10
2018-12-25T19:37:30.997Z,50.00
2018-12-25T19:40:11.333Z,50.10
2018-12-25T19:42:51.516Z,50.10
2018-12-25T19:45:31.963Z,50.00
2018-12-25T19:48:12.355Z,50.00
2018-12-25T19:50:52.577Z,50.00
2018-12-25T19:53:33.076Z,50.00
2018-12-25T19:56:13.348Z,50.00
2018-12-25T19:58:53.641Z,50.00
2018-12-25T20:01:33.944Z,50.00
2018-12-25T20:04:14.193Z,49.90
2018-12-25T20:06:54.609Z,50.00
2018-12-25T20:13:03.630Z,49.90
2018-12-25T20:15:44.018Z,50.00
2018-12-25T20:18:24.409Z,50.00
2018-12-25T20:21:04.636Z,49.90
2018-12-25T20:23:44.728Z,50.00
2018-12-25T20:26:24.889Z,50.00
2018-12-25T20:29:05.928Z,50.00
2018-12-25T20:31:46.657Z,49.90
2018-12-25T20:34:27.398Z,49.90
2018-12-25T20:37:08.009Z,49.90
2018-12-25T20:39:48.407Z,49.90
2018-12-25T20:42:28.817Z,49.90
2018-12-25T20:45:09.437Z,49.90
2018-12-25T20:47:53.172Z,49.90
2018-12-25T20:50:33.149Z,49.90
2018-12-25T20:53:13.609Z,49.90
2018-12-25T20:55:53.942Z,49.90
2018-12-25T20:58:33.975Z,49.90
2018-12-25T21:01:14.151Z,49.90
2018-12-25T21:03:54.589Z,49.90
2018-12-25T21:09:43.334Z,49.90
2018-12-25T21:12:24.744Z,49.90
2018-12-25T21:15:04.870Z,49.90
2018-12-25T21:17:46.233Z,49.90
2018-12-25T21:20:26.253Z,49.90
2018-12-25T21:23:06.609Z,49.80
2018-12-25T21:25:46.761Z,49.90
2018-12-25T21:28:27.281Z,49.90
2018-12-25T21:31:07.190Z,49.90
2018-12-25T21:33:47.268Z,49.80
2018-12-25T21:36:27.692Z,49.90
2018-12-25T21:39:07.885Z,49.90
2018-12-25T21:41:48.310Z,49.70
2018-12-25T21:44:28.107Z,49.90
2018-12-25T21:47:08.629Z,49.90
2018-12-25T21:49:49.189Z,49.90
2018-12-25T21:52:29.539Z,49.90
2018-12-25T21:55:18.299Z,49.90
2018-12-25T21:57:52.246Z,49.90
2018-12-25T22:00:32.617Z,49.90
2018-12-25T22:03:13.042Z,49.90
2018-12-25T22:05:53.073Z,49.80
2018-12-25T22:11:58.545Z,49.80
2018-12-25T22:14:38.694Z,49.80
2018-12-25T22:17:18.645Z,49.80
2018-12-25T22:19:58.835Z,49.80
2018-12-25T22:22:39.197Z,49.80
2018-12-25T22:25:26.874Z,49.80
2018-12-25T22:28:01.853Z,49.80
2018-12-25T22:30:41.962Z,49.80
2018-12-25T22:33:22.220Z,49.70
2018-12-25T22:36:02.541Z,49.80
2018-12-25T22:38:42.919Z,49.80
2018-12-25T22:41:23.860Z,49.80
2018-12-25T22:44:04.365Z,49.80
2018-12-25T22:46:44.777Z,49.80
2018-12-25T22:49:25.208Z,49.80
2018-12-25T22:52:05.531Z,49.70
2018-12-25T22:54:45.521Z,49.80
2018-12-25T22:57:25.799Z,49.80
2018-12-25T23:00:06.447Z,49.70
2018-12-25T23:02:46.634Z,49.70
2018-12-25T23:05:27.021Z,49.70
2018-12-25T23:08:07.160Z,49.70
2018-12-25T23:10:47.254Z,49.70
2018-12-25T23:13:27.697Z,49.70
2018-12-25T23:19:16.411Z,49.70
2018-12-25T23:21:56.648Z,49.70
2018-12-25T23:24:36.801Z,49.70
2018-12-25T23:27:16.758Z,49.70
2018-12-25T23:29:56.950Z,49.70
2018-12-25T23:35:26.514Z,49.70
2018-12-25T23:38:06.732Z,49.70
2018-12-25T23:40:47.042Z,49.70
2018-12-25T23:43:27.378Z,49.70
2018-12-25T23:46:07.622Z,49.60
2018-12-25T23:48:47.769Z,49.70
2018-12-25T23:51:28.234Z,49.70
2018-12-25T23:57:17.828Z,49.70
2018-12-25T23:59:58.247Z,49.70
